Time;durP1;ratioP1;P1;durP2;ratioP2;P2;SDS_P1;SDS_P2;PMS_P1;PMS_P2;Temp;Humidity;BMP_temperature;BMP_pressure;BME280_temperature;BME280_humidity;BME280_pressure;Samples;Min_cycle;Max_cycle;Signal;HPM_P1;HPM_P2
2021/11/26 00:01:36;;;;;;;;;;;17.40;99.90;;;;;;5033827;28;19912;-73
2021/11/26 00:04:05;;;;;;;;;;;17.30;99.90;;;;;;5032100;28;20388;-74
2021/11/26 00:06:32;;;;;;;;;;;17.30;99.90;;;;;;5033476;28;19909;-72
2021/11/26 00:09:00;;;;;;;;;;;17.30;99.90;;;;;;5033471;28;19909;-73
2021/11/26 00:11:27;;;;;;;;;;;17.40;99.90;;;;;;5034550;28;20402;-73
2021/11/26 00:14:06;;;;;;;;;;;17.30;99.90;;;;;;5037096;28;19931;-74
2021/11/26 00:16:37;;;;;;;;;;;17.30;99.90;;;;;;5037185;28;19912;-74
2021/11/26 00:19:05;;;;;;;;;;;17.40;99.90;;;;;;5035640;28;19905;-73
2021/11/26 00:21:33;;;;;;;;;;;17.30;99.90;;;;;;5035838;28;19932;-73
2021/11/26 00:24:00;;;;;;;;;;;17.40;99.90;;;;;;5037113;28;19909;-74
2021/11/26 00:26:26;;;;;;;;;;;17.50;99.90;;;;;;5037362;28;19905;-74
2021/11/26 00:28:53;;;;;;;;;;;17.40;99.90;;;;;;5037309;28;19909;-73
2021/11/26 00:31:20;;;;;;;;;;;17.40;99.90;;;;;;5037538;28;20027;-73
2021/11/26 00:33:47;;;;;;;;;;;17.40;99.90;;;;;;5037263;28;19912;-74
2021/11/26 00:36:13;;;;;;;;;;;17.40;99.90;;;;;;5036941;28;20415;-74
2021/11/26 00:38:40;;;;;;;;;;;17.30;99.90;;;;;;5037108;28;19912;-74
2021/11/26 00:41:07;;;;;;;;;;;17.40;99.90;;;;;;5035831;28;20392;-74
2021/11/26 00:43:34;;;;;;;;;;;17.40;99.90;;;;;;5036981;28;20004;-74
2021/11/26 00:46:00;;;;;;;;;;;17.40;99.90;;;;;;5035867;28;19939;-73
2021/11/26 00:48:27;;;;;;;;;;;17.50;99.90;;;;;;5036666;28;19952;-74
2021/11/26 00:50:54;;;;;;;;;;;17.50;99.90;;;;;;5036552;28;20451;-74
2021/11/26 00:53:20;;;;;;;;;;;17.40;99.90;;;;;;5036747;28;20015;-74
2021/11/26 00:55:47;;;;;;;;;;;17.50;99.90;;;;;;5036647;28;19905;-74
2021/11/26 00:58:14;;;;;;;;;;;17.40;99.90;;;;;;5035295;28;20355;-74
2021/11/26 01:00:41;;;;;;;;;;;17.40;99.90;;;;;;5036542;28;19912;-74
2021/11/26 01:03:07;;;;;;;;;;;17.50;99.90;;;;;;5036594;28;19905;-74
2021/11/26 01:05:34;;;;;;;;;;;17.50;99.90;;;;;;5035018;28;20377;-74
2021/11/26 01:08:01;;;;;;;;;;;17.50;99.90;;;;;;5036486;28;20012;-74
2021/11/26 01:10:28;;;;;;;;;;;17.60;99.90;;;;;;5035182;28;19905;-74
2021/11/26 01:12:55;;;;;;;;;;;17.50;99.90;;;;;;5035493;28;20281;-74
2021/11/26 01:15:25;;;;;;;;;;;17.50;99.90;;;;;;5036543;28;19905;-74
2021/11/26 01:17:52;;;;;;;;;;;17.70;99.90;;;;;;5034999;28;19909;-74
2021/11/26 01:20:20;;;;;;;;;;;17.80;99.90;;;;;;5036265;28;19912;-74
2021/11/26 01:22:48;;;;;;;;;;;18.00;99.90;;;;;;5033934;28;19912;-75
2021/11/26 01:25:16;;;;;;;;;;;17.90;99.90;;;;;;5035584;28;19951;-73
2021/11/26 01:27:44;;;;;;;;;;;17.90;99.90;;;;;;5035422;28;20369;-74
2021/11/26 01:30:14;;;;;;;;;;;18.00;99.90;;;;;;5035484;28;19905;-74
2021/11/26 01:32:42;;;;;;;;;;;18.10;99.90;;;;;;5018187;28;19951;-74
2021/11/26 01:35:09;;;;;;;;;;;18.10;99.90;;;;;;5034648;28;19905;-74
2021/11/26 01:37:35;;;;;;;;;;;18.10;99.90;;;;;;5035909;28;19912;-74
2021/11/26 01:40:03;;;;;;;;;;;18.00;99.90;;;;;;5035422;28;19905;-74
2021/11/26 01:42:30;;;;;;;;;;;18.10;99.90;;;;;;5034363;28;19932;-74
2021/11/26 01:44:56;;;;;;;;;;;18.10;99.90;;;;;;5035534;28;20277;-74
2021/11/26 01:47:23;;;;;;;;;;;18.20;99.90;;;;;;5033855;28;19936;-73
2021/11/26 01:49:50;;;;;;;;;;;18.30;99.90;;;;;;5033743;28;20424;-73
2021/11/26 01:52:21;;;;;;;;;;;18.20;99.90;;;;;;5035587;28;19988;-73
2021/11/26 01:54:47;;;;;;;;;;;18.10;99.90;;;;;;5035114;28;19995;-74
2021/11/26 01:57:16;;;;;;;;;;;18.40;99.90;;;;;;5035425;28;19913;-74
2021/11/26 01:59:43;;;;;;;;;;;18.50;99.90;;;;;;5033797;28;19905;-74
2021/11/26 02:02:10;;;;;;;;;;;18.60;99.90;;;;;;5035453;28;19909;-73
2021/11/26 02:04:36;;;;;;;;;;;18.50;99.90;;;;;;5033845;28;20296;-73
2021/11/26 02:07:03;;;;;;;;;;;18.40;99.90;;;;;;5035006;28;19905;-73
2021/11/26 02:09:30;;;;;;;;;;;18.40;99.90;;;;;;5034914;28;19906;-73
2021/11/26 02:11:56;;;;;;;;;;;18.30;99.90;;;;;;5035033;28;20361;-73
2021/11/26 02:14:26;;;;;;;;;;;18.20;99.90;;;;;;5034880;28;20328;-72
2021/11/26 02:16:53;;;;;;;;;;;18.20;99.90;;;;;;5034924;28;19909;-73
2021/11/26 02:19:24;;;;;;;;;;;18.20;99.90;;;;;;5033756;28;19971;-74
2021/11/26 02:21:52;;;;;;;;;;;18.30;99.90;;;;;;5034731;28;19905;-74
2021/11/26 02:24:19;;;;;;;;;;;18.40;99.90;;;;;;5033340;28;19955;-74
2021/11/26 02:26:47;;;;;;;;;;;18.40;99.90;;;;;;5034442;28;19911;-73
2021/11/26 02:29:15;;;;;;;;;;;18.60;99.90;;;;;;5034619;28;19913;-74
2021/11/26 02:31:42;;;;;;;;;;;19.00;99.90;;;;;;5034282;28;19905;-72
2021/11/26 02:34:09;;;;;;;;;;;19.00;99.90;;;;;;5032785;28;19905;-74
2021/11/26 02:36:36;;;;;;;;;;;19.00;99.90;;;;;;5034439;28;19916;-72
2021/11/26 02:39:08;;;;;;;;;;;18.90;99.90;;;;;;5034048;28;20354;-72
2021/11/26 02:41:35;;;;;;;;;;;18.90;99.90;;;;;;5032982;28;20361;-73
2021/11/26 02:44:02;;;;;;;;;;;19.10;99.90;;;;;;5034616;28;19905;-73
2021/11/26 02:46:29;;;;;;;;;;;19.00;99.90;;;;;;5034137;28;19905;-72
2021/11/26 02:48:55;;;;;;;;;;;18.90;99.90;;;;;;5034424;28;20370;-73
2021/11/26 02:51:22;;;;;;;;;;;18.90;99.90;;;;;;5033163;28;19905;-72
2021/11/26 02:53:49;;;;;;;;;;;18.90;99.90;;;;;;5032986;28;20328;-72
2021/11/26 02:56:16;;;;;;;;;;;18.80;99.90;;;;;;5034726;28;19912;-73
2021/11/26 02:58:42;;;;;;;;;;;18.70;99.90;;;;;;5033291;28;19924;-72
2021/11/26 03:01:09;;;;;;;;;;;18.70;99.90;;;;;;5034392;28;20445;-73
2021/11/26 03:03:36;;;;;;;;;;;18.50;99.90;;;;;;5032763;28;19972;-72
2021/11/26 03:06:04;;;;;;;;;;;18.40;99.90;;;;;;5033082;28;19963;-72
2021/11/26 03:08:31;;;;;;;;;;;18.30;99.90;;;;;;5033817;28;19935;-72
2021/11/26 03:10:59;;;;;;;;;;;18.40;99.90;;;;;;5034108;28;19912;-72
2021/11/26 03:13:26;;;;;;;;;;;18.30;99.90;;;;;;5034374;28;19959;-72
2021/11/26 03:15:53;;;;;;;;;;;18.20;99.90;;;;;;5033188;28;19940;-71
2021/11/26 03:18:20;;;;;;;;;;;18.30;99.90;;;;;;5034468;28;19905;-70
2021/11/26 03:20:48;;;;;;;;;;;18.40;99.90;;;;;;5034021;28;20036;-70
2021/11/26 03:23:15;;;;;;;;;;;18.50;99.90;;;;;;5033919;28;19909;-71
2021/11/26 03:25:42;;;;;;;;;;;18.50;99.90;;;;;;5034358;28;19905;-71
2021/11/26 03:28:09;;;;;;;;;;;18.60;99.90;;;;;;5033216;28;19909;-72
2021/11/26 03:30:36;;;;;;;;;;;18.60;99.90;;;;;;5034774;28;19905;-73
2021/11/26 03:33:03;;;;;;;;;;;18.80;99.90;;;;;;5033208;28;19995;-73
2021/11/26 03:35:30;;;;;;;;;;;18.80;99.90;;;;;;5034628;28;19996;-71
2021/11/26 03:37:57;;;;;;;;;;;18.90;99.90;;;;;;5034116;28;20365;-72
2021/11/26 03:40:24;;;;;;;;;;;18.80;99.90;;;;;;5032397;28;19913;-72
2021/11/26 03:42:51;;;;;;;;;;;18.80;99.90;;;;;;5032914;28;19913;-72
2021/11/26 03:45:19;;;;;;;;;;;18.70;99.90;;;;;;5033153;28;20317;-73
2021/11/26 03:47:47;;;;;;;;;;;18.70;99.90;;;;;;5037769;28;19909;-73
2021/11/26 03:50:18;;;;;;;;;;;18.80;99.90;;;;;;5037959;28;20423;-73
2021/11/26 03:52:45;;;;;;;;;;;19.00;99.90;;;;;;5020473;28;19909;-73
2021/11/26 03:55:21;;;;;;;;;;;18.80;99.90;;;;;;5037753;28;19912;-72
2021/11/26 03:57:51;;;;;;;;;;;18.70;99.90;;;;;;5038164;28;19905;-73
2021/11/26 04:00:18;;;;;;;;;;;18.70;99.90;;;;;;5036986;28;19931;-73
2021/11/26 04:02:45;;;;;;;;;;;18.70;99.90;;;;;;5036718;28;20396;-73
2021/11/26 04:05:13;;;;;;;;;;;18.50;99.90;;;;;;5036310;28;19924;-72
2021/11/26 04:07:40;;;;;;;;;;;18.40;99.90;;;;;;5038026;28;19909;-72
2021/11/26 04:10:08;;;;;;;;;;;18.40;99.90;;;;;;5037894;28;19905;-74
2021/11/26 04:12:35;;;;;;;;;;;18.30;99.90;;;;;;5035975;28;19956;-72
2021/11/26 04:15:06;;;;;;;;;;;18.20;99.90;;;;;;5036699;28;19949;-71
2021/11/26 04:17:33;;;;;;;;;;;18.20;99.90;;;;;;5036572;28;19905;-73
2021/11/26 04:20:00;;;;;;;;;;;18.20;99.90;;;;;;5037142;28;20023;-74
2021/11/26 04:22:27;;;;;;;;;;;18.10;99.90;;;;;;5037765;28;20357;-72
2021/11/26 04:24:54;;;;;;;;;;;18.00;99.90;;;;;;5037660;28;19948;-73
2021/11/26 04:27:20;;;;;;;;;;;18.00;99.90;;;;;;5036165;28;19967;-73
2021/11/26 04:29:47;;;;;;;;;;;18.00;99.90;;;;;;5036326;28;19970;-73
2021/11/26 04:32:14;;;;;;;;;;;18.00;99.90;;;;;;5037218;28;19916;-72
2021/11/26 04:34:41;;;;;;;;;;;18.00;99.90;;;;;;5037135;28;20365;-72
2021/11/26 04:37:08;;;;;;;;;;;18.00;99.90;;;;;;5037128;28;20399;-73
2021/11/26 04:39:35;;;;;;;;;;;17.90;99.90;;;;;;5037212;28;19904;-72
2021/11/26 04:42:03;;;;;;;;;;;17.70;99.90;;;;;;5036944;28;20417;-73
2021/11/26 04:44:29;;;;;;;;;;;17.70;99.90;;;;;;5035754;28;19905;-72
2021/11/26 04:46:56;;;;;;;;;;;17.60;99.90;;;;;;5035682;28;19937;-72
2021/11/26 04:49:23;;;;;;;;;;;17.60;99.90;;;;;;5036802;28;19995;-73
2021/11/26 04:51:49;;;;;;;;;;;17.60;99.90;;;;;;5036008;28;19912;-72
2021/11/26 04:54:16;;;;;;;;;;;17.50;99.90;;;;;;5035096;28;20347;-71
2021/11/26 04:56:45;;;;;;;;;;;17.50;99.90;;;;;;5036296;28;19944;-71
2021/11/26 04:59:12;;;;;;;;;;;17.50;99.90;;;;;;5035334;28;20000;-72
2021/11/26 05:01:39;;;;;;;;;;;17.50;99.90;;;;;;5036688;28;20285;-73
2021/11/26 05:04:06;;;;;;;;;;;17.50;99.90;;;;;;5034905;28;19916;-72
2021/11/26 05:06:36;;;;;;;;;;;17.40;99.90;;;;;;5036349;28;20286;-73
2021/11/26 05:09:06;;;;;;;;;;;17.30;99.90;;;;;;5035964;28;19951;-72
2021/11/26 05:11:33;;;;;;;;;;;17.30;99.90;;;;;;5034835;28;19972;-73
2021/11/26 05:14:02;;;;;;;;;;;17.20;99.90;;;;;;5034732;28;19905;-72
2021/11/26 05:16:29;;;;;;;;;;;17.20;99.90;;;;;;5036133;28;19912;-72
2021/11/26 05:18:56;;;;;;;;;;;17.10;99.90;;;;;;5036391;28;19912;-72
2021/11/26 05:21:23;;;;;;;;;;;17.20;99.90;;;;;;5034818;28;19992;-73
2021/11/26 05:23:49;;;;;;;;;;;17.10;99.90;;;;;;5035908;28;19912;-72
2021/11/26 05:26:18;;;;;;;;;;;17.10;99.90;;;;;;5035658;28;19909;-72
2021/11/26 05:28:44;;;;;;;;;;;17.20;99.90;;;;;;5036202;28;19909;-73
2021/11/26 05:31:11;;;;;;;;;;;17.20;99.90;;;;;;5036105;28;19959;-73
2021/11/26 05:33:38;;;;;;;;;;;17.20;99.90;;;;;;5034629;28;19951;-74
2021/11/26 05:36:04;;;;;;;;;;;17.20;99.90;;;;;;5036007;28;19909;-73
2021/11/26 05:38:31;;;;;;;;;;;17.10;99.90;;;;;;5035851;28;19927;-74
2021/11/26 05:41:01;;;;;;;;;;;17.00;99.90;;;;;;5035766;28;19916;-73
2021/11/26 05:43:27;;;;;;;;;;;16.90;99.90;;;;;;5034235;28;20328;-73
2021/11/26 05:45:54;;;;;;;;;;;16.90;99.90;;;;;;5035781;28;19947;-74
2021/11/26 05:48:21;;;;;;;;;;;16.90;99.90;;;;;;5035608;28;20012;-75
2021/11/26 05:50:48;;;;;;;;;;;16.80;99.90;;;;;;5034592;28;20003;-74
2021/11/26 05:53:15;;;;;;;;;;;16.80;99.90;;;;;;5035199;28;19916;-74
2021/11/26 05:55:41;;;;;;;;;;;16.70;99.90;;;;;;5036436;28;19952;-74
2021/11/26 05:58:08;;;;;;;;;;;16.80;99.90;;;;;;5034064;28;19905;-74
2021/11/26 06:00:35;;;;;;;;;;;16.70;99.90;;;;;;5036042;28;19955;-74
2021/11/26 06:03:02;;;;;;;;;;;16.70;99.90;;;;;;5035389;28;19905;-73
2021/11/26 06:05:29;;;;;;;;;;;16.50;99.90;;;;;;5033864;28;20301;-74
2021/11/26 06:07:56;;;;;;;;;;;16.50;99.90;;;;;;5033994;28;19909;-73
2021/11/26 06:10:26;;;;;;;;;;;16.50;99.90;;;;;;5034572;28;19905;-74
2021/11/26 06:12:53;;;;;;;;;;;16.50;99.90;;;;;;5034332;28;19905;-73
2021/11/26 06:15:21;;;;;;;;;;;16.60;99.90;;;;;;5035666;28;19951;-74
2021/11/26 06:17:48;;;;;;;;;;;16.50;99.90;;;;;;5035326;28;19996;-74
2021/11/26 06:20:15;;;;;;;;;;;16.60;99.90;;;;;;5035011;28;19905;-74
2021/11/26 06:22:42;;;;;;;;;;;16.50;99.90;;;;;;5034188;28;20472;-73
2021/11/26 06:25:11;;;;;;;;;;;16.50;99.90;;;;;;5035223;28;19908;-74
2021/11/26 06:27:37;;;;;;;;;;;16.50;99.90;;;;;;5035186;28;19909;-73
2021/11/26 06:30:05;;;;;;;;;;;16.50;99.90;;;;;;5035524;28;20424;-74
2021/11/26 06:32:32;;;;;;;;;;;16.50;99.90;;;;;;5033916;28;19912;-73
2021/11/26 06:34:58;;;;;;;;;;;16.50;99.90;;;;;;5033645;28;19905;-73
2021/11/26 06:37:25;;;;;;;;;;;16.60;99.90;;;;;;5033446;28;19909;-73
2021/11/26 06:39:52;;;;;;;;;;;16.50;99.90;;;;;;5034840;28;20338;-73
2021/11/26 06:42:18;;;;;;;;;;;16.60;99.90;;;;;;5033729;28;20270;-73
2021/11/26 06:44:45;;;;;;;;;;;16.50;99.90;;;;;;5034827;28;19905;-73
2021/11/26 06:47:12;;;;;;;;;;;16.50;99.90;;;;;;5034485;28;19905;-73
2021/11/26 06:49:38;;;;;;;;;;;16.50;99.90;;;;;;5034930;28;20464;-73
2021/11/26 06:52:05;;;;;;;;;;;16.50;99.90;;;;;;5034771;28;19905;-73
2021/11/26 06:54:32;;;;;;;;;;;16.40;99.90;;;;;;5033382;28;19905;-73
2021/11/26 06:56:59;;;;;;;;;;;16.40;99.90;;;;;;5034804;28;19905;-73
2021/11/26 06:59:26;;;;;;;;;;;16.40;99.90;;;;;;5033177;28;19912;-73
2021/11/26 07:01:52;;;;;;;;;;;16.40;99.90;;;;;;5032953;28;19905;-73
2021/11/26 07:04:19;;;;;;;;;;;16.40;99.90;;;;;;5034177;28;20418;-74
2021/11/26 07:06:46;;;;;;;;;;;16.40;99.90;;;;;;5032758;28;19944;-74
2021/11/26 07:09:12;;;;;;;;;;;16.40;99.90;;;;;;5033076;28;19909;-75
2021/11/26 07:11:39;;;;;;;;;;;16.30;99.90;;;;;;5033201;28;20365;-74
2021/11/26 07:14:06;;;;;;;;;;;16.30;99.90;;;;;;5032867;28;19959;-74
2021/11/26 07:16:32;;;;;;;;;;;16.40;99.90;;;;;;5034353;28;19905;-74
2021/11/26 07:18:59;;;;;;;;;;;16.30;99.90;;;;;;5034742;28;20424;-73
2021/11/26 07:21:26;;;;;;;;;;;16.40;99.90;;;;;;5036494;28;19912;-73
2021/11/26 07:23:55;;;;;;;;;;;16.40;99.90;;;;;;5038443;28;19905;-74
2021/11/26 07:26:21;;;;;;;;;;;16.30;99.90;;;;;;5038467;28;19905;-72
2021/11/26 07:28:48;;;;;;;;;;;16.30;99.90;;;;;;5038386;28;19916;-73
2021/11/26 07:31:16;;;;;;;;;;;16.30;99.90;;;;;;5038568;28;19920;-73
2021/11/26 07:33:43;;;;;;;;;;;16.20;99.90;;;;;;5038141;28;19905;-73
2021/11/26 07:36:11;;;;;;;;;;;16.30;99.90;;;;;;5038415;28;19905;-74
2021/11/26 07:38:38;;;;;;;;;;;16.40;99.90;;;;;;5037489;28;19905;-74
2021/11/26 07:41:04;;;;;;;;;;;16.40;99.90;;;;;;5037172;28;20380;-74
2021/11/26 07:43:31;;;;;;;;;;;16.30;99.90;;;;;;5036891;28;19941;-74
2021/11/26 07:46:00;;;;;;;;;;;16.30;99.90;;;;;;5037590;28;19905;-74
2021/11/26 07:48:27;;;;;;;;;;;16.30;99.90;;;;;;5037804;28;19935;-74
2021/11/26 07:50:55;;;;;;;;;;;16.30;99.90;;;;;;5037939;28;19944;-74
2021/11/26 07:53:22;;;;;;;;;;;16.20;99.90;;;;;;5037971;28;19905;-73
2021/11/26 07:55:49;;;;;;;;;;;16.20;99.90;;;;;;5037693;28;19943;-74
2021/11/26 07:58:16;;;;;;;;;;;16.20;99.90;;;;;;5036183;28;19995;-74
2021/11/26 08:00:43;;;;;;;;;;;16.30;99.90;;;;;;5037439;28;19905;-74
2021/11/26 08:03:12;;;;;;;;;;;16.30;99.90;;;;;;5037090;28;19905;-73
2021/11/26 08:05:39;;;;;;;;;;;16.20;99.90;;;;;;5036994;28;20387;-74
2021/11/26 08:08:09;;;;;;;;;;;16.30;99.90;;;;;;5036163;28;20262;-74
2021/11/26 08:10:37;;;;;;;;;;;16.30;99.90;;;;;;5037323;28;19912;-75
2021/11/26 08:13:04;;;;;;;;;;;16.20;99.90;;;;;;5037530;28;19909;-73
2021/11/26 08:15:31;;;;;;;;;;;16.20;99.90;;;;;;5036123;28;19905;-73
2021/11/26 08:18:02;;;;;;;;;;;16.20;99.90;;;;;;5037386;28;20360;-74
2021/11/26 08:20:28;;;;;;;;;;;16.10;99.90;;;;;;5035878;28;19944;-74
2021/11/26 08:22:55;;;;;;;;;;;16.20;99.90;;;;;;5037218;28;19908;-73
2021/11/26 08:25:23;;;;;;;;;;;16.20;99.90;;;;;;5036037;28;19952;-74
2021/11/26 08:27:51;;;;;;;;;;;16.20;99.90;;;;;;5036942;28;19959;-74
2021/11/26 08:30:18;;;;;;;;;;;16.20;99.90;;;;;;5037160;28;19905;-74
2021/11/26 08:32:45;;;;;;;;;;;16.10;99.90;;;;;;5034898;28;19905;-74
2021/11/26 08:35:12;;;;;;;;;;;16.10;99.90;;;;;;5037253;28;19933;-74
2021/11/26 08:37:38;;;;;;;;;;;16.10;99.90;;;;;;5036684;28;19905;-74
2021/11/26 08:40:06;;;;;;;;;;;16.10;99.90;;;;;;5036916;28;19909;-75
2021/11/26 08:42:33;;;;;;;;;;;16.00;99.90;;;;;;5036695;28;19905;-75
2021/11/26 08:45:00;;;;;;;;;;;16.00;99.90;;;;;;5035588;28;19905;-74
2021/11/26 08:47:27;;;;;;;;;;;16.00;99.90;;;;;;5036583;28;19944;-74
2021/11/26 08:49:53;;;;;;;;;;;16.00;99.90;;;;;;5036457;28;19909;-74
2021/11/26 08:52:21;;;;;;;;;;;16.00;99.90;;;;;;5036595;28;19905;-74
2021/11/26 08:54:47;;;;;;;;;;;16.00;99.90;;;;;;5035877;28;19912;-74
2021/11/26 08:57:16;;;;;;;;;;;16.00;99.90;;;;;;5036360;28;19955;-74
2021/11/26 08:59:42;;;;;;;;;;;16.00;99.90;;;;;;5036201;28;19947;-73
2021/11/26 09:02:09;;;;;;;;;;;16.00;99.90;;;;;;5035186;28;20373;-74
2021/11/26 09:04:36;;;;;;;;;;;16.00;99.90;;;;;;5035812;28;19917;-74
2021/11/26 09:07:05;;;;;;;;;;;16.00;99.90;;;;;;5036180;28;19905;-74
2021/11/26 09:09:32;;;;;;;;;;;16.00;99.90;;;;;;5034647;28;19954;-73
2021/11/26 09:12:00;;;;;;;;;;;16.00;99.90;;;;;;5035777;28;19928;-74
2021/11/26 09:14:26;;;;;;;;;;;16.00;99.90;;;;;;5036072;28;19914;-74
2021/11/26 09:16:53;;;;;;;;;;;16.00;99.90;;;;;;5036144;28;20028;-74
2021/11/26 09:19:20;;;;;;;;;;;15.90;99.90;;;;;;5034794;28;20346;-74
2021/11/26 09:21:47;;;;;;;;;;;15.90;99.90;;;;;;5036192;28;20001;-73
2021/11/26 09:24:13;;;;;;;;;;;15.90;99.90;;;;;;5036107;28;19920;-74
2021/11/26 09:26:40;;;;;;;;;;;15.90;99.90;;;;;;5036258;28;19905;-74
2021/11/26 09:29:07;;;;;;;;;;;15.90;99.90;;;;;;5035752;28;20258;-75
2021/11/26 09:31:34;;;;;;;;;;;15.90;99.90;;;;;;5035948;28;19959;-73
2021/11/26 09:34:02;;;;;;;;;;;15.90;99.90;;;;;;5036025;28;19941;-74
2021/11/26 09:36:29;;;;;;;;;;;15.90;99.90;;;;;;5036330;28;20378;-75
2021/11/26 09:38:55;;;;;;;;;;;16.00;99.90;;;;;;5036186;28;20000;-75
2021/11/26 09:41:22;;;;;;;;;;;16.00;99.90;;;;;;5036032;28;19912;-75
2021/11/26 09:43:49;;;;;;;;;;;16.00;99.90;;;;;;5033862;28;20289;-74
2021/11/26 09:46:19;;;;;;;;;;;16.00;99.90;;;;;;5035791;28;19916;-75
2021/11/26 09:48:46;;;;;;;;;;;16.00;99.90;;;;;;5035433;28;19909;-75
2021/11/26 09:51:12;;;;;;;;;;;16.00;99.90;;;;;;5035669;28;20297;-76
2021/11/26 09:53:39;;;;;;;;;;;16.00;99.90;;;;;;5035676;28;19912;-74
2021/11/26 09:56:06;;;;;;;;;;;16.00;99.90;;;;;;5035277;28;19925;-74
2021/11/26 09:58:34;;;;;;;;;;;16.00;99.90;;;;;;5035216;28;20397;-74
2021/11/26 10:01:02;;;;;;;;;;;16.00;99.90;;;;;;5035256;28;19995;-74
2021/11/26 10:03:40;;;;;;;;;;;16.00;99.90;;;;;;5035303;28;19912;-74
2021/11/26 10:06:27;;;;;;;;;;;16.00;99.90;;;;;;5035467;28;19905;-75
2021/11/26 10:09:02;;;;;;;;;;;15.90;99.90;;;;;;5033578;28;20293;-74
2021/11/26 10:11:30;;;;;;;;;;;15.90;99.90;;;;;;5035094;28;19988;-75
2021/11/26 10:13:57;;;;;;;;;;;16.00;99.90;;;;;;5035133;28;19904;-74
2021/11/26 10:16:24;;;;;;;;;;;16.00;99.90;;;;;;5035256;28;19932;-74
2021/11/26 10:18:51;;;;;;;;;;;16.00;99.90;;;;;;5033580;28;19905;-75
2021/11/26 10:21:19;;;;;;;;;;;16.00;99.90;;;;;;5033859;28;20445;-74
2021/11/26 10:23:50;;;;;;;;;;;16.00;99.90;;;;;;5034832;28;19945;-75
2021/11/26 10:26:24;;;;;;;;;;;16.10;99.90;;;;;;5034594;28;19909;-76
2021/11/26 10:29:03;;;;;;;;;;;16.10;99.90;;;;;;5034802;28;19909;-74
2021/11/26 10:31:32;;;;;;;;;;;16.10;99.90;;;;;;5034585;28;19941;-75
2021/11/26 10:34:01;;;;;;;;;;;16.10;99.90;;;;;;5034611;28;19955;-75
2021/11/26 10:36:28;;;;;;;;;;;16.10;99.90;;;;;;5034949;28;20440;-76
2021/11/26 10:38:55;;;;;;;;;;;16.00;99.90;;;;;;5034442;28;19911;-75
2021/11/26 10:41:28;;;;;;;;;;;16.10;99.90;;;;;;5034406;28;20349;-74
2021/11/26 10:44:00;;;;;;;;;;;16.10;99.90;;;;;;5034184;28;19905;-74
2021/11/26 10:59:47;;;;;;;;;;;16.10;99.90;;;;;;5034691;28;19912;-73
2021/11/26 11:02:30;;;;;;;;;;;16.00;99.90;;;;;;5034367;28;19953;-73
2021/11/26 11:04:57;;;;;;;;;;;16.00;99.90;;;;;;5032898;28;19995;-74
2021/11/26 11:07:23;;;;;;;;;;;16.00;99.90;;;;;;5032867;28;19909;-73
2021/11/26 11:09:55;;;;;;;;;;;16.00;99.90;;;;;;5032707;28;20069;-74
2021/11/26 11:12:30;;;;;;;;;;;16.00;99.90;;;;;;5034330;28;19905;-74
2021/11/26 11:14:57;;;;;;;;;;;16.00;99.90;;;;;;5032957;28;19905;-74
2021/11/26 11:17:27;;;;;;;;;;;15.90;99.90;;;;;;5033971;28;20278;-74
2021/11/26 11:19:57;;;;;;;;;;;16.00;99.90;;;;;;5033690;28;19909;-74
2021/11/26 11:22:25;;;;;;;;;;;16.00;99.90;;;;;;5034135;28;19932;-73
2021/11/26 11:24:51;;;;;;;;;;;16.00;99.90;;;;;;5033909;28;19905;-74
2021/11/26 11:27:18;;;;;;;;;;;16.00;99.90;;;;;;5032302;28;19905;-73
2021/11/26 11:29:46;;;;;;;;;;;16.00;99.90;;;;;;5032645;28;19905;-75
2021/11/26 11:32:13;;;;;;;;;;;16.00;99.90;;;;;;5032530;28;19905;-74
2021/11/26 11:34:40;;;;;;;;;;;16.00;99.90;;;;;;5033986;28;19980;-75
2021/11/26 11:37:10;;;;;;;;;;;16.00;99.90;;;;;;5033993;28;19912;-74
2021/11/26 11:39:50;;;;;;;;;;;15.90;99.90;;;;;;5033894;28;19912;-74
2021/11/26 11:42:31;;;;;;;;;;;16.00;99.90;;;;;;5032606;28;19913;-74
2021/11/26 11:45:07;;;;;;;;;;;16.00;99.90;;;;;;5033751;28;19927;-75
2021/11/26 11:47:34;;;;;;;;;;;16.00;99.90;;;;;;5032622;28;19963;-75
2021/11/26 11:50:05;;;;;;;;;;;15.90;99.90;;;;;;5032690;28;19909;-74
2021/11/26 11:52:42;;;;;;;;;;;15.90;99.90;;;;;;5033854;28;20281;-75
2021/11/26 11:55:26;;;;;;;;;;;15.90;99.90;;;;;;5033965;28;19912;-74
2021/11/26 11:57:56;;;;;;;;;;;15.80;99.90;;;;;;5034108;28;19916;-74
2021/11/26 12:00:26;;;;;;;;;;;15.80;99.90;;;;;;5034318;28;19913;-74
2021/11/26 12:03:05;;;;;;;;;;;15.80;99.90;;;;;;5032550;28;19955;-73
2021/11/26 12:05:31;;;;;;;;;;;15.80;99.90;;;;;;5033680;28;19949;-74
2021/11/26 12:08:14;;;;;;;;;;;15.90;99.90;;;;;;5035712;28;19909;-74
2021/11/26 12:10:42;;;;;;;;;;;16.00;99.90;;;;;;5036007;28;19905;-74
2021/11/26 12:13:17;;;;;;;;;;;15.90;99.90;;;;;;5035946;28;19912;-75
2021/11/26 12:15:44;;;;;;;;;;;15.90;99.90;;;;;;5037008;28;19912;-74
2021/11/26 12:18:11;;;;;;;;;;;15.90;99.90;;;;;;5036933;28;19905;-74
2021/11/26 12:20:38;;;;;;;;;;;16.00;99.90;;;;;;5037279;28;19930;-74
2021/11/26 12:23:16;;;;;;;;;;;16.00;99.90;;;;;;5037189;28;19905;-74
2021/11/26 12:26:01;;;;;;;;;;;16.00;99.90;;;;;;5036889;28;19905;-74
2021/11/26 12:28:38;;;;;;;;;;;16.00;99.90;;;;;;5037003;28;19916;-74
2021/11/26 12:31:07;;;;;;;;;;;16.00;99.90;;;;;;5036698;28;19905;-74
2021/11/26 12:33:35;;;;;;;;;;;16.00;99.90;;;;;;5036917;28;19916;-73
2021/11/26 12:36:03;;;;;;;;;;;16.10;99.90;;;;;;5035430;28;19912;-74
2021/11/26 12:38:44;;;;;;;;;;;16.10;99.90;;;;;;5036687;28;20278;-74
2021/11/26 12:41:11;;;;;;;;;;;16.10;99.90;;;;;;5036585;28;19959;-74
2021/11/26 12:43:39;;;;;;;;;;;16.10;99.90;;;;;;5035245;28;20358;-74
2021/11/26 12:46:05;;;;;;;;;;;16.10;99.90;;;;;;5036653;28;19905;-74
2021/11/26 12:48:36;;;;;;;;;;;16.10;99.90;;;;;;5036776;28;19909;-74
2021/11/26 12:51:05;;;;;;;;;;;;;;;;;;5036570;28;19919;-74
2021/11/26 12:53:32;;;;;;;;;;;;;;;;;;5036615;28;20020;-74
2021/11/26 12:55:58;;;;;;;;;;;;;;;;;;5035571;28;19905;-74
2021/11/26 12:58:25;;;;;;;;;;;;;;;;;;5036660;28;19905;-73
2021/11/26 13:00:51;;;;;;;;;;;;;;;;;;5036718;28;20378;-74
2021/11/26 13:03:18;;;;;;;;;;;;;;;;;;5036553;28;20397;-74
2021/11/26 13:05:44;;;;;;;;;;;;;;;;;;5036768;28;20293;-74
2021/11/26 13:08:11;;;;;;;;;;;;;;;;;;5035187;28;20293;-74
2021/11/26 13:10:37;;;;;;;;;;;;;;;;;;5036123;28;20312;-73
2021/11/26 13:13:04;;;;;;;;;;;;;;;;;;5036291;28;19909;-73
2021/11/26 13:15:30;;;;;;;;;;;;;;;;;;5036218;28;19911;-74
2021/11/26 13:17:57;;;;;;;;;;;;;;;;;;5034865;28;20277;-73
2021/11/26 13:20:23;;;;;;;;;;;;;;;;;;5034794;28;19956;-73
2021/11/26 13:22:49;;;;;;;;;;;;;;;;;;5035069;28;19944;-73
2021/11/26 13:25:16;;;;;;;;;;;;;;;;;;5036175;28;19938;-74
2021/11/26 13:27:42;;;;;;;;;;;;;;;;;;5034822;28;19909;-74
2021/11/26 13:30:09;;;;;;;;;;;;;;;;;;5036564;28;19911;-74
2021/11/26 13:32:35;;;;;;;;;;;;;;;;;;5035803;28;19954;-73
2021/11/26 13:35:02;;;;;;;;;;;;;;;;;;5036040;28;19905;-73
2021/11/26 13:37:29;;;;;;;;;;;;;;;;;;5035716;28;19905;-73
2021/11/26 13:39:55;;;;;;;;;;;;;;;;;;5034523;28;19955;-74
2021/11/26 13:42:22;;;;;;;;;;;;;;;;;;5036009;28;20354;-73
2021/11/26 13:44:48;;;;;;;;;;;;;;;;;;5035750;28;19905;-73
2021/11/26 13:47:15;;;;;;;;;;;;;;;;;;5035692;28;19912;-73
2021/11/26 13:49:41;;;;;;;;;;;;;;;;;;5033890;28;20320;-73
2021/11/26 13:52:08;;;;;;;;;;;;;;;;;;5035524;28;19909;-73
2021/11/26 13:54:34;;;;;;;;;;;;;;;;;;5034344;28;20313;-73
2021/11/26 13:57:01;;;;;;;;;;;;;;;;;;5035497;28;19909;-74
2021/11/26 13:59:27;;;;;;;;;;;;;;;;;;5035360;28;19954;-73
2021/11/26 14:01:54;;;;;;;;;;;;;;;;;;5035251;28;19909;-73
2021/11/26 14:04:20;;;;;;;;;;;;;;;;;;5035091;28;19917;-73
2021/11/26 14:06:47;;;;;;;;;;;;;;;;;;5033937;28;20310;-73
2021/11/26 14:09:13;;;;;;;;;;;;;;;;;;5035328;28;19913;-73
2021/11/26 14:11:43;;;;;;;;;;;;;;;;;;5035536;28;20472;-73
2021/11/26 14:14:09;;;;;;;;;;;;;;;;;;5035216;28;19904;-74
2021/11/26 14:16:36;;;;;;;;;;;;;;;;;;5035072;28;19905;-73
2021/11/26 14:19:02;;;;;;;;;;;;;;;;;;5035174;28;19971;-74
2021/11/26 14:21:29;;;;;;;;;;;;;;;;;;5035022;28;19905;-72
2021/11/26 14:23:55;;;;;;;;;;;;;;;;;;5033708;28;19971;-73
2021/11/26 14:26:22;;;;;;;;;;;;;;;;;;5034943;28;19905;-73
2021/11/26 14:28:48;;;;;;;;;;;;;;;;;;5034817;28;19915;-73
2021/11/26 14:31:15;;;;;;;;;;;;;;;;;;5034574;28;19912;-73
2021/11/26 14:33:41;;;;;;;;;;;;;;;;;;5034518;28;19909;-73
2021/11/26 14:36:08;;;;;;;;;;;;;;;;;;5034529;28;20309;-74
2021/11/26 14:38:35;;;;;;;;;;;;;;;;;;5033591;28;19905;-74
2021/11/26 14:41:01;;;;;;;;;;;;;;;;;;5034882;28;20362;-75
2021/11/26 14:43:28;;;;;;;;;;;;;;;;;;5033159;28;19905;-72
2021/11/26 14:45:55;;;;;;;;;;;;;;;;;;5034738;28;20344;-73
2021/11/26 14:48:22;;;;;;;;;;;;;;;;;;5034294;28;19995;-74
2021/11/26 14:50:49;;;;;;;;;;;;;;;;;;5034497;28;19905;-72
2021/11/26 14:53:15;;;;;;;;;;;;;;;;;;5034516;28;19905;-73